Lietadlo (typ, imatrikulačný znak): _________________/__________________
Meno pilota (skontroloval): ___________________________________
Podpis pilota (skontroloval): ___________________________________

Predpoveď na dnes

Oblačno až zamračené a miestami slabé sneženie, postupne v nížinách aj dážď so snehom. Ojedinele tvorba snehoých jazykov. Najvyššia denná teplota 1 až 5, na severe okolo -1 st. Teplota na horách vo výške 1500 m okolo -5 st. Severný až severovýchodný vietor 3 až 7 m/s (10 až 25 km/h), v nárazoch, najmä na východe, okolo 14 m/s (50 km/h). Na juhu stredného Slovenska miestami slabý vietor. Predpokladané množstvo zrážok: DEŇ: do 2 mm / do 2 cm snehu

SHMÚ, OMPaV, NP 21.2.2018 04:40 SEČ

METAR - Letisková meteo správa

Letisková meteorologická správa METAR

Meteorologické informácie z ďalších profesionálnych meteorologických staníc SHMÚ zobrazené v tvare zodpovedajúcom pravidlám kódovania správ METAR sú uvedené v položke „METSYN Informácie o správe METAR

21.02.2018 - 06:30 UTC

METAR LZIB 210630Z 27006KT 4000 -SN BR BKN023 OVC027 M01/M02 Q1016
 R13/6/0395 NOSIG=
 METAR LZKZ 210630Z 02011KT 6000 -SN SCT019 OVC035 M01/M03 Q1015
 NOSIG=
 METAR LZPP 210630Z 34010KT 7000 OVC038 M01/M04 Q1015=
 METAR LZSL 210630Z 00000KT 2000 -SN BR BKN028 OVC100 M01/M02 Q1014=
 METAR LZTT 210630Z 31002KT 4000 -SN BR FEW009 BKN020 M06/M07 Q1013
 NOSIG=
 METAR LZZI 210630Z 03008KT CAVOK M03/M08 Q1016=
 

21.02.2018 - 06:00 UTC

METAR LZIB 210600Z 25005KT 3400 -SN BR OVC021 M00/M02 Q1016
 R13/6/0395 NOSIG=
 METAR LZKZ 210600Z 02010KT 6000 -SN SCT018 OVC038 M01/M03 Q1015
 NOSIG=
 METAR LZPP 210600Z 34008KT 7000 OVC040 M01/M04 Q1015=
 METAR LZSL 210600Z 00000KT 2500 -SN BR BKN028 OVC100 M02/M02 Q1014=
 METAR LZTT 210600Z 00000KT 4000 -SN FEW009 SCT020 BKN090 M06/M07
 Q1013 NOSIG=
 METAR LZZI 210600Z 03007KT CAVOK M03/M07 Q1016=
 

21.02.2018 - 06:00 UTC

METAR LZMC 210600Z 32002KT 3000 -SN FEW008 BKN024
 OVC033 M02/M04 Q1016=
 METAR LZPW 210600Z 04006KT 2500 -SN SCT021 OVC038
 M03/M05 Q1016=
 

TAF - Letisková predpoveď

21.02.2018 - 05:00 UTC

TAF LZIB 210500Z 2106/2206 29004KT 4500 -SN BR FEW008 BKN020
     BECMG 2106/2108 7000 SCT012 BKN030
     BECMG 2110/2112 02008KT 9999 SCT035 BKN070
     PROB40 TEMPO 2115/2118 -RA BKN035
     TEMPO 2118/2203 5000 -SN BKN030=
 TAF LZKZ 210500Z 2106/2206 02010KT 9999 FEW030 BKN060
     PROB40 TEMPO 2106/2116 5000 -SN FEW012 BKN030
     BECMG 2106/2108 02018KT
     TEMPO 2110/2206 01025G38KT
     BECMG 2118/2120 CAVOK=
 TAF LZTT 210500Z 2106/2206 VRB02KT 9999 SCT020 OVC045
     TEMPO 2106/2114 3000 -SN SCT008 BKN020
     BECMG 2108/2110 11006KT
     BECMG 2114/2116 07010KT SCT040=
 

21.02.2018 - 05:00 UTC

TAF LZSL 210500Z 2106/2115 VRB02KT 4000 -SN BR SCT030 OVC060
     PROB40 TEMPO 2106/2108 1200 -SN BR BKN012 OVC030
     BECMG 2111/2113 7000 NSW=
 TAF LZPP 210500Z 2106/2115 36008KT 9999 BKN040 BKN070=
 TAF LZZI 210500Z 2106/2115 05007KT 9999 FEW040 BKN080=
 

21.02.2018 - 02:00 UTC

TAF LZSL 210200Z 2103/2112 VRB02KT 4000 -SN BR BKN015 OVC030
     PROB40 TEMPO 2103/2108 1200 -SN BR BKN007 OVC018=
 TAF LZZI 210200Z 2103/2112 05005KT 9999 SCT040 BKN080
     PROB30 TEMPO 2103/2106 7000 -SN SCT024 OVC050=